sensor_id;sensor_type;location;lat;lon;timestamp;temperature;humidity
6333;DHT22;3199;49.102;8.856;2022-09-29T00:01:37;7.80;99.90
6333;DHT22;3199;49.102;8.856;2022-09-29T00:04:03;7.70;99.90
6333;DHT22;3199;49.102;8.856;2022-09-29T00:06:28;7.70;99.90
6333;DHT22;3199;49.102;8.856;2022-09-29T00:08:54;7.70;99.90
6333;DHT22;3199;49.102;8.856;2022-09-29T00:11:19;7.70;99.90
6333;DHT22;3199;49.102;8.856;2022-09-29T00:13:46;7.70;99.90
6333;DHT22;3199;49.102;8.856;2022-09-29T00:16:12;7.60;99.90
6333;DHT22;3199;49.102;8.856;2022-09-29T00:18:37;7.60;99.90
6333;DHT22;3199;49.102;8.856;2022-09-29T00:21:08;7.60;99.90
6333;DHT22;3199;49.102;8.856;2022-09-29T00:23:35;7.60;99.90
6333;DHT22;3199;49.102;8.856;2022-09-29T00:26:18;7.50;99.90
6333;DHT22;3199;49.102;8.856;2022-09-29T00:28:53;7.50;99.90
6333;DHT22;3199;49.102;8.856;2022-09-29T00:31:21;7.50;99.90
6333;DHT22;3199;49.102;8.856;2022-09-29T00:33:47;7.50;99.90
6333;DHT22;3199;49.102;8.856;2022-09-29T00:36:15;7.50;99.90
6333;DHT22;3199;49.102;8.856;2022-09-29T00:38:43;7.50;99.90
6333;DHT22;3199;49.102;8.856;2022-09-29T00:41:21;7.50;99.90
6333;DHT22;3199;49.102;8.856;2022-09-29T00:52:03;7.50;99.90
6333;DHT22;3199;49.102;8.856;2022-09-29T00:54:34;7.40;99.90
6333;DHT22;3199;49.102;8.856;2022-09-29T00:57:03;7.40;99.90
6333;DHT22;3199;49.102;8.856;2022-09-29T01:02:18;7.40;99.90
6333;DHT22;3199;49.102;8.856;2022-09-29T01:04:46;7.40;99.90
6333;DHT22;3199;49.102;8.856;2022-09-29T01:07:12;7.40;99.90
6333;DHT22;3199;49.102;8.856;2022-09-29T01:09:39;7.30;99.90
6333;DHT22;3199;49.102;8.856;2022-09-29T01:12:06;7.30;99.90
6333;DHT22;3199;49.102;8.856;2022-09-29T01:14:33;7.30;99.90
6333;DHT22;3199;49.102;8.856;2022-09-29T01:16:59;7.30;99.90
6333;DHT22;3199;49.102;8.856;2022-09-29T01:19:28;7.30;99.90
6333;DHT22;3199;49.102;8.856;2022-09-29T01:22:21;7.30;99.90
6333;DHT22;3199;49.102;8.856;2022-09-29T01:41:19;7.40;99.90
6333;DHT22;3199;49.102;8.856;2022-09-29T01:43:53;7.40;99.90
6333;DHT22;3199;49.102;8.856;2022-09-29T01:46:41;7.50;99.90
6333;DHT22;3199;49.102;8.856;2022-09-29T01:49:08;7.50;99.90
6333;DHT22;3199;49.102;8.856;2022-09-29T01:52:09;7.50;99.90
6333;DHT22;3199;49.102;8.856;2022-09-29T01:55:09;7.60;99.90
6333;DHT22;3199;49.102;8.856;2022-09-29T01:57:47;7.60;99.90
6333;DHT22;3199;49.102;8.856;2022-09-29T02:00:16;7.60;99.90
6333;DHT22;3199;49.102;8.856;2022-09-29T02:05:33;7.60;99.90
6333;DHT22;3199;49.102;8.856;2022-09-29T02:08:09;7.70;99.90
6333;DHT22;3199;49.102;8.856;2022-09-29T02:13:17;7.70;99.90
6333;DHT22;3199;49.102;8.856;2022-09-29T02:15:45;7.70;99.90
6333;DHT22;3199;49.102;8.856;2022-09-29T02:18:20;7.70;99.90
6333;DHT22;3199;49.102;8.856;2022-09-29T02:20:47;7.70;99.90
6333;DHT22;3199;49.102;8.856;2022-09-29T02:23:14;7.70;99.90
6333;DHT22;3199;49.102;8.856;2022-09-29T02:25:40;7.80;99.90
6333;DHT22;3199;49.102;8.856;2022-09-29T02:28:06;7.80;99.90
6333;DHT22;3199;49.102;8.856;2022-09-29T02:30:33;7.80;99.90
6333;DHT22;3199;49.102;8.856;2022-09-29T02:32:59;7.80;99.90
6333;DHT22;3199;49.102;8.856;2022-09-29T02:35:28;7.80;99.90
6333;DHT22;3199;49.102;8.856;2022-09-29T02:38:10;7.90;99.90
6333;DHT22;3199;49.102;8.856;2022-09-29T02:40:52;7.90;99.90
6333;DHT22;3199;49.102;8.856;2022-09-29T02:49:10;7.90;99.90
6333;DHT22;3199;49.102;8.856;2022-09-29T02:51:54;7.90;99.90
6333;DHT22;3199;49.102;8.856;2022-09-29T02:54:45;8.00;99.90
6333;DHT22;3199;49.102;8.856;2022-09-29T02:57:29;8.00;99.90
6333;DHT22;3199;49.102;8.856;2022-09-29T03:02:36;8.00;99.90
6333;DHT22;3199;49.102;8.856;2022-09-29T03:05:07;7.90;99.90
6333;DHT22;3199;49.102;8.856;2022-09-29T03:07:35;8.00;99.90
6333;DHT22;3199;49.102;8.856;2022-09-29T03:10:01;8.00;99.90
6333;DHT22;3199;49.102;8.856;2022-09-29T03:12:27;8.00;99.90
6333;DHT22;3199;49.102;8.856;2022-09-29T03:14:52;7.90;99.90
6333;DHT22;3199;49.102;8.856;2022-09-29T03:17:18;7.90;99.90
6333;DHT22;3199;49.102;8.856;2022-09-29T03:19:43;7.90;99.90
6333;DHT22;3199;49.102;8.856;2022-09-29T03:22:09;7.90;99.90
6333;DHT22;3199;49.102;8.856;2022-09-29T03:24:34;7.80;99.90
6333;DHT22;3199;49.102;8.856;2022-09-29T03:27:00;7.90;99.90
6333;DHT22;3199;49.102;8.856;2022-09-29T03:29:26;7.80;99.90
6333;DHT22;3199;49.102;8.856;2022-09-29T03:31:51;7.80;99.90
6333;DHT22;3199;49.102;8.856;2022-09-29T03:34:17;7.80;99.90
6333;DHT22;3199;49.102;8.856;2022-09-29T03:36:42;7.80;99.90
6333;DHT22;3199;49.102;8.856;2022-09-29T03:39:08;7.80;99.90
6333;DHT22;3199;49.102;8.856;2022-09-29T03:41:33;7.80;99.90
6333;DHT22;3199;49.102;8.856;2022-09-29T03:43:59;7.80;99.90
6333;DHT22;3199;49.102;8.856;2022-09-29T03:46:24;7.80;99.90
6333;DHT22;3199;49.102;8.856;2022-09-29T03:48:50;7.80;99.90
6333;DHT22;3199;49.102;8.856;2022-09-29T03:51:15;7.80;99.90
6333;DHT22;3199;49.102;8.856;2022-09-29T03:53:41;7.70;99.90
6333;DHT22;3199;49.102;8.856;2022-09-29T03:56:07;7.80;99.90
6333;DHT22;3199;49.102;8.856;2022-09-29T03:58:33;7.70;99.90
6333;DHT22;3199;49.102;8.856;2022-09-29T04:00:59;7.70;99.90
6333;DHT22;3199;49.102;8.856;2022-09-29T04:03:25;7.70;99.90
6333;DHT22;3199;49.102;8.856;2022-09-29T04:05:51;7.70;99.90
6333;DHT22;3199;49.102;8.856;2022-09-29T04:08:16;7.70;99.90
6333;DHT22;3199;49.102;8.856;2022-09-29T04:10:42;7.60;99.90
6333;DHT22;3199;49.102;8.856;2022-09-29T04:13:08;7.60;99.90
6333;DHT22;3199;49.102;8.856;2022-09-29T04:15:34;7.60;99.90
6333;DHT22;3199;49.102;8.856;2022-09-29T04:18:00;7.60;99.90
6333;DHT22;3199;49.102;8.856;2022-09-29T04:20:26;7.60;99.90
6333;DHT22;3199;49.102;8.856;2022-09-29T04:22:51;7.60;99.90
6333;DHT22;3199;49.102;8.856;2022-09-29T04:25:17;7.60;99.90
6333;DHT22;3199;49.102;8.856;2022-09-29T04:27:43;7.60;99.90
6333;DHT22;3199;49.102;8.856;2022-09-29T04:30:09;7.60;99.90
6333;DHT22;3199;49.102;8.856;2022-09-29T04:32:34;7.60;99.90
6333;DHT22;3199;49.102;8.856;2022-09-29T04:35:00;7.60;99.90
6333;DHT22;3199;49.102;8.856;2022-09-29T04:37:26;7.60;99.90
6333;DHT22;3199;49.102;8.856;2022-09-29T04:39:52;7.60;99.90
6333;DHT22;3199;49.102;8.856;2022-09-29T04:42:18;7.60;99.90
6333;DHT22;3199;49.102;8.856;2022-09-29T04:44:44;7.60;99.90
6333;DHT22;3199;49.102;8.856;2022-09-29T04:47:10;7.60;99.90
6333;DHT22;3199;49.102;8.856;2022-09-29T04:49:36;7.60;99.90
6333;DHT22;3199;49.102;8.856;2022-09-29T04:52:02;7.60;99.90
6333;DHT22;3199;49.102;8.856;2022-09-29T04:54:34;7.60;99.90
6333;DHT22;3199;49.102;8.856;2022-09-29T04:57:00;7.60;99.90
6333;DHT22;3199;49.102;8.856;2022-09-29T04:59:26;7.60;99.90
6333;DHT22;3199;49.102;8.856;2022-09-29T05:01:52;7.50;99.90
6333;DHT22;3199;49.102;8.856;2022-09-29T05:04:18;7.50;99.90
6333;DHT22;3199;49.102;8.856;2022-09-29T05:06:44;7.50;99.90
6333;DHT22;3199;49.102;8.856;2022-09-29T05:09:09;7.50;99.90
6333;DHT22;3199;49.102;8.856;2022-09-29T05:11:35;7.50;99.90
6333;DHT22;3199;49.102;8.856;2022-09-29T05:14:00;7.50;99.90
6333;DHT22;3199;49.102;8.856;2022-09-29T05:16:26;7.50;99.90
6333;DHT22;3199;49.102;8.856;2022-09-29T05:18:52;7.40;99.90
6333;DHT22;3199;49.102;8.856;2022-09-29T05:21:17;7.40;99.90
6333;DHT22;3199;49.102;8.856;2022-09-29T05:23:43;7.40;99.90
6333;DHT22;3199;49.102;8.856;2022-09-29T05:26:10;7.40;99.90
6333;DHT22;3199;49.102;8.856;2022-09-29T05:28:37;7.40;99.90
6333;DHT22;3199;49.102;8.856;2022-09-29T05:31:07;7.40;99.90
6333;DHT22;3199;49.102;8.856;2022-09-29T05:33:34;7.40;99.90
6333;DHT22;3199;49.102;8.856;2022-09-29T05:36:00;7.40;99.90
6333;DHT22;3199;49.102;8.856;2022-09-29T05:38:28;7.40;99.90
6333;DHT22;3199;49.102;8.856;2022-09-29T05:40:54;7.40;99.90
6333;DHT22;3199;49.102;8.856;2022-09-29T05:43:19;7.50;99.90
6333;DHT22;3199;49.102;8.856;2022-09-29T05:45:45;7.50;99.90
6333;DHT22;3199;49.102;8.856;2022-09-29T05:48:11;7.50;99.90
6333;DHT22;3199;49.102;8.856;2022-09-29T05:50:36;7.50;99.90
6333;DHT22;3199;49.102;8.856;2022-09-29T05:53:09;7.50;99.90
6333;DHT22;3199;49.102;8.856;2022-09-29T05:55:36;7.60;99.90
6333;DHT22;3199;49.102;8.856;2022-09-29T05:58:05;7.60;99.90
6333;DHT22;3199;49.102;8.856;2022-09-29T06:00:32;7.70;99.90
6333;DHT22;3199;49.102;8.856;2022-09-29T06:03:01;7.70;99.90
6333;DHT22;3199;49.102;8.856;2022-09-29T06:05:27;7.70;99.90
6333;DHT22;3199;49.102;8.856;2022-09-29T06:07:53;7.80;99.90
6333;DHT22;3199;49.102;8.856;2022-09-29T06:10:20;7.90;99.90
6333;DHT22;3199;49.102;8.856;2022-09-29T06:12:45;7.90;99.90
6333;DHT22;3199;49.102;8.856;2022-09-29T06:15:11;8.00;99.90
6333;DHT22;3199;49.102;8.856;2022-09-29T06:17:37;8.00;99.90
6333;DHT22;3199;49.102;8.856;2022-09-29T06:20:04;8.10;99.90
6333;DHT22;3199;49.102;8.856;2022-09-29T06:22:31;8.30;99.90
6333;DHT22;3199;49.102;8.856;2022-09-29T06:24:57;8.40;99.90
6333;DHT22;3199;49.102;8.856;2022-09-29T06:27:22;8.50;99.90
6333;DHT22;3199;49.102;8.856;2022-09-29T06:29:48;8.70;99.90
6333;DHT22;3199;49.102;8.856;2022-09-29T06:32:13;8.80;99.90
6333;DHT22;3199;49.102;8.856;2022-09-29T06:34:39;9.00;99.90
6333;DHT22;3199;49.102;8.856;2022-09-29T06:37:25;9.10;99.90
6333;DHT22;3199;49.102;8.856;2022-09-29T06:40:01;9.30;99.90
6333;DHT22;3199;49.102;8.856;2022-09-29T06:42:26;9.40;99.90
6333;DHT22;3199;49.102;8.856;2022-09-29T06:44:52;9.50;99.90
6333;DHT22;3199;49.102;8.856;2022-09-29T06:47:19;9.60;99.90
6333;DHT22;3199;49.102;8.856;2022-09-29T06:49:44;9.70;99.90
6333;DHT22;3199;49.102;8.856;2022-09-29T06:52:10;9.90;99.90
6333;DHT22;3199;49.102;8.856;2022-09-29T06:54:35;10.10;99.90
6333;DHT22;3199;49.102;8.856;2022-09-29T06:57:01;10.30;99.90
6333;DHT22;3199;49.102;8.856;2022-09-29T06:59:26;10.70;99.90
6333;DHT22;3199;49.102;8.856;2022-09-29T07:01:52;11.00;99.90
6333;DHT22;3199;49.102;8.856;2022-09-29T07:04:18;11.40;99.90
6333;DHT22;3199;49.102;8.856;2022-09-29T07:06:44;11.90;99.90
6333;DHT22;3199;49.102;8.856;2022-09-29T07:09:10;12.30;99.90
6333;DHT22;3199;49.102;8.856;2022-09-29T07:11:41;12.40;99.90
6333;DHT22;3199;49.102;8.856;2022-09-29T07:14:14;12.60;99.90
6333;DHT22;3199;49.102;8.856;2022-09-29T07:16:39;12.80;99.90
6333;DHT22;3199;49.102;8.856;2022-09-29T07:19:05;13.10;99.90
6333;DHT22;3199;49.102;8.856;2022-09-29T07:21:30;13.30;99.90
6333;DHT22;3199;49.102;8.856;2022-09-29T07:23:56;13.60;99.90
6333;DHT22;3199;49.102;8.856;2022-09-29T07:26:21;13.70;99.90
6333;DHT22;3199;49.102;8.856;2022-09-29T07:28:47;13.70;99.90
6333;DHT22;3199;49.102;8.856;2022-09-29T07:31:15;13.70;99.90
6333;DHT22;3199;49.102;8.856;2022-09-29T07:33:42;13.60;99.90
6333;DHT22;3199;49.102;8.856;2022-09-29T07:36:08;13.50;99.90
6333;DHT22;3199;49.102;8.856;2022-09-29T07:38:33;13.40;99.90
6333;DHT22;3199;49.102;8.856;2022-09-29T07:41:03;13.30;99.90
6333;DHT22;3199;49.102;8.856;2022-09-29T07:43:30;13.30;99.90
6333;DHT22;3199;49.102;8.856;2022-09-29T07:45:55;13.20;99.90
6333;DHT22;3199;49.102;8.856;2022-09-29T07:48:21;13.20;99.90
6333;DHT22;3199;49.102;8.856;2022-09-29T07:50:47;13.20;99.90
6333;DHT22;3199;49.102;8.856;2022-09-29T07:53:13;13.30;99.90
6333;DHT22;3199;49.102;8.856;2022-09-29T07:55:39;13.20;99.90
6333;DHT22;3199;49.102;8.856;2022-09-29T07:58:05;13.20;99.90
6333;DHT22;3199;49.102;8.856;2022-09-29T08:00:31;13.20;99.90
6333;DHT22;3199;49.102;8.856;2022-09-29T08:03:04;13.20;99.90
6333;DHT22;3199;49.102;8.856;2022-09-29T08:05:32;13.70;99.90
6333;DHT22;3199;49.102;8.856;2022-09-29T08:08:02;14.40;99.90
6333;DHT22;3199;49.102;8.856;2022-09-29T08:10:29;14.90;99.90
6333;DHT22;3199;49.102;8.856;2022-09-29T08:12:55;15.00;99.90
6333;DHT22;3199;49.102;8.856;2022-09-29T08:15:21;14.90;99.90
6333;DHT22;3199;49.102;8.856;2022-09-29T08:17:47;14.60;99.90
6333;DHT22;3199;49.102;8.856;2022-09-29T08:20:13;14.50;99.90
6333;DHT22;3199;49.102;8.856;2022-09-29T08:22:38;14.70;99.90
6333;DHT22;3199;49.102;8.856;2022-09-29T08:25:04;14.80;99.90
6333;DHT22;3199;49.102;8.856;2022-09-29T08:27:29;14.80;99.90
6333;DHT22;3199;49.102;8.856;2022-09-29T08:29:55;14.80;99.90
6333;DHT22;3199;49.102;8.856;2022-09-29T08:32:22;14.80;99.90
6333;DHT22;3199;49.102;8.856;2022-09-29T08:34:47;15.10;99.90
6333;DHT22;3199;49.102;8.856;2022-09-29T08:37:13;15.30;99.90
6333;DHT22;3199;49.102;8.856;2022-09-29T08:39:38;15.40;99.90
6333;DHT22;3199;49.102;8.856;2022-09-29T08:42:12;15.60;99.90
6333;DHT22;3199;49.102;8.856;2022-09-29T08:44:56;15.80;99.90
6333;DHT22;3199;49.102;8.856;2022-09-29T08:47:36;15.90;99.90
6333;DHT22;3199;49.102;8.856;2022-09-29T08:50:10;16.00;99.90
6333;DHT22;3199;49.102;8.856;2022-09-29T08:52:41;16.00;99.90
6333;DHT22;3199;49.102;8.856;2022-09-29T08:57:47;16.50;99.90
6333;DHT22;3199;49.102;8.856;2022-09-29T09:00:15;16.80;99.90
6333;DHT22;3199;49.102;8.856;2022-09-29T09:08:46;16.80;98.50
6333;DHT22;3199;49.102;8.856;2022-09-29T09:25:32;18.10;95.90
6333;DHT22;3199;49.102;8.856;2022-09-29T09:28:31;17.80;95.80
6333;DHT22;3199;49.102;8.856;2022-09-29T09:31:13;17.60;95.80
6333;DHT22;3199;49.102;8.856;2022-09-29T09:33:49;17.40;96.10
6333;DHT22;3199;49.102;8.856;2022-09-29T09:36:19;17.40;96.50
6333;DHT22;3199;49.102;8.856;2022-09-29T09:38:52;17.50;96.50
6333;DHT22;3199;49.102;8.856;2022-09-29T09:41:21;17.60;96.20
6333;DHT22;3199;49.102;8.856;2022-09-29T09:43:52;17.60;95.80
6333;DHT22;3199;49.102;8.856;2022-09-29T09:49:00;17.50;95.50
6333;DHT22;3199;49.102;8.856;2022-09-29T09:54:39;16.70;96.10
6333;DHT22;3199;49.102;8.856;2022-09-29T09:57:33;16.50;96.20
6333;DHT22;3199;49.102;8.856;2022-09-29T10:02:31;16.70;96.10
6333;DHT22;3199;49.102;8.856;2022-09-29T10:04:56;17.00;96.20
6333;DHT22;3199;49.102;8.856;2022-09-29T10:07:24;17.10;95.80
6333;DHT22;3199;49.102;8.856;2022-09-29T10:09:51;17.20;95.40
6333;DHT22;3199;49.102;8.856;2022-09-29T10:12:22;17.30;95.40
6333;DHT22;3199;49.102;8.856;2022-09-29T10:15:04;17.40;95.40
6333;DHT22;3199;49.102;8.856;2022-09-29T10:17:40;17.40;94.60
6333;DHT22;3199;49.102;8.856;2022-09-29T10:20:08;17.50;94.10
6333;DHT22;3199;49.102;8.856;2022-09-29T10:22:34;17.60;94.80
6333;DHT22;3199;49.102;8.856;2022-09-29T10:25:15;17.60;94.30
6333;DHT22;3199;49.102;8.856;2022-09-29T10:27:48;17.70;93.90
6333;DHT22;3199;49.102;8.856;2022-09-29T10:30:32;17.80;94.40
6333;DHT22;3199;49.102;8.856;2022-09-29T10:33:01;17.70;93.70
6333;DHT22;3199;49.102;8.856;2022-09-29T10:35:40;17.70;94.40
6333;DHT22;3199;49.102;8.856;2022-09-29T10:38:23;17.60;94.40
6333;DHT22;3199;49.102;8.856;2022-09-29T10:41:04;17.50;94.20
6333;DHT22;3199;49.102;8.856;2022-09-29T10:45:58;17.50;93.50
6333;DHT22;3199;49.102;8.856;2022-09-29T10:48:25;17.50;93.90
6333;DHT22;3199;49.102;8.856;2022-09-29T10:50:58;17.70;94.50
6333;DHT22;3199;49.102;8.856;2022-09-29T10:55:54;17.90;93.70
6333;DHT22;3199;49.102;8.856;2022-09-29T10:58:28;18.10;93.20
6333;DHT22;3199;49.102;8.856;2022-09-29T11:01:13;18.30;92.10
6333;DHT22;3199;49.102;8.856;2022-09-29T11:03:45;18.30;92.40
6333;DHT22;3199;49.102;8.856;2022-09-29T11:06:12;18.20;92.60
6333;DHT22;3199;49.102;8.856;2022-09-29T11:14:38;17.90;92.90
6333;DHT22;3199;49.102;8.856;2022-09-29T11:17:29;17.90;93.00
6333;DHT22;3199;49.102;8.856;2022-09-29T11:20:00;18.00;92.60
6333;DHT22;3199;49.102;8.856;2022-09-29T11:25:25;18.00;92.70
6333;DHT22;3199;49.102;8.856;2022-09-29T11:34:05;17.90;92.70
6333;DHT22;3199;49.102;8.856;2022-09-29T11:36:50;17.90;92.60
6333;DHT22;3199;49.102;8.856;2022-09-29T11:39:51;17.90;92.40
6333;DHT22;3199;49.102;8.856;2022-09-29T11:42:26;17.90;92.40
6333;DHT22;3199;49.102;8.856;2022-09-29T11:45:00;17.80;92.70
6333;DHT22;3199;49.102;8.856;2022-09-29T11:53:05;18.10;92.00
6333;DHT22;3199;49.102;8.856;2022-09-29T12:04:16;18.20;91.10
6333;DHT22;3199;49.102;8.856;2022-09-29T12:06:54;18.20;91.70
6333;DHT22;3199;49.102;8.856;2022-09-29T12:12:18;18.00;91.70
6333;DHT22;3199;49.102;8.856;2022-09-29T12:17:35;17.90;90.50
6333;DHT22;3199;49.102;8.856;2022-09-29T12:20:15;17.80;91.00
6333;DHT22;3199;49.102;8.856;2022-09-29T12:22:42;17.60;91.10
6333;DHT22;3199;49.102;8.856;2022-09-29T12:25:17;17.60;91.80
6333;DHT22;3199;49.102;8.856;2022-09-29T12:27:45;17.50;91.90
6333;DHT22;3199;49.102;8.856;2022-09-29T12:30:24;17.40;91.10
6333;DHT22;3199;49.102;8.856;2022-09-29T12:33:14;17.20;92.00
6333;DHT22;3199;49.102;8.856;2022-09-29T12:39:42;16.90;92.70
6333;DHT22;3199;49.102;8.856;2022-09-29T12:42:37;17.20;91.60
6333;DHT22;3199;49.102;8.856;2022-09-29T12:45:30;17.40;91.10
6333;DHT22;3199;49.102;8.856;2022-09-29T12:48:23;17.60;91.40
6333;DHT22;3199;49.102;8.856;2022-09-29T12:50:58;17.50;90.20
6333;DHT22;3199;49.102;8.856;2022-09-29T12:54:08;17.50;90.90
6333;DHT22;3199;49.102;8.856;2022-09-29T12:59:14;17.60;91.10
6333;DHT22;3199;49.102;8.856;2022-09-29T13:01:45;17.70;90.90
6333;DHT22;3199;49.102;8.856;2022-09-29T13:13:03;18.20;87.70
6333;DHT22;3199;49.102;8.856;2022-09-29T13:23:47;18.00;89.40
6333;DHT22;3199;49.102;8.856;2022-09-29T13:26:30;17.90;87.80
6333;DHT22;3199;49.102;8.856;2022-09-29T13:29:03;17.60;87.40
6333;DHT22;3199;49.102;8.856;2022-09-29T13:31:34;17.60;89.10
6333;DHT22;3199;49.102;8.856;2022-09-29T13:34:02;17.50;89.30
6333;DHT22;3199;49.102;8.856;2022-09-29T13:38:59;17.50;89.90
6333;DHT22;3199;49.102;8.856;2022-09-29T13:46:38;17.30;90.10
6333;DHT22;3199;49.102;8.856;2022-09-29T13:54:33;17.10;88.10
6333;DHT22;3199;49.102;8.856;2022-09-29T13:59:41;16.90;90.30
6333;DHT22;3199;49.102;8.856;2022-09-29T14:02:36;16.70;90.80
6333;DHT22;3199;49.102;8.856;2022-09-29T14:05:05;16.70;91.10
6333;DHT22;3199;49.102;8.856;2022-09-29T14:07:48;16.70;91.50
6333;DHT22;3199;49.102;8.856;2022-09-29T14:13:03;16.60;91.60
6333;DHT22;3199;49.102;8.856;2022-09-29T14:15:40;16.50;91.60
6333;DHT22;3199;49.102;8.856;2022-09-29T14:18:20;16.40;91.40
6333;DHT22;3199;49.102;8.856;2022-09-29T14:21:00;16.40;91.60
6333;DHT22;3199;49.102;8.856;2022-09-29T14:26:44;16.70;91.90
6333;DHT22;3199;49.102;8.856;2022-09-29T14:29:21;16.80;91.70
6333;DHT22;3199;49.102;8.856;2022-09-29T14:31:50;16.70;91.70
6333;DHT22;3199;49.102;8.856;2022-09-29T14:34:20;16.70;91.10
6333;DHT22;3199;49.102;8.856;2022-09-29T14:36:48;16.70;91.10
6333;DHT22;3199;49.102;8.856;2022-09-29T14:39:16;16.80;91.00
6333;DHT22;3199;49.102;8.856;2022-09-29T14:41:44;16.80;91.60
6333;DHT22;3199;49.102;8.856;2022-09-29T14:46:57;16.50;91.40
6333;DHT22;3199;49.102;8.856;2022-09-29T14:53:15;16.60;91.20
6333;DHT22;3199;49.102;8.856;2022-09-29T15:01:30;16.40;91.00
6333;DHT22;3199;49.102;8.856;2022-09-29T15:04:03;16.40;91.20
6333;DHT22;3199;49.102;8.856;2022-09-29T15:06:30;16.50;91.40
6333;DHT22;3199;49.102;8.856;2022-09-29T15:09:18;16.50;91.80
6333;DHT22;3199;49.102;8.856;2022-09-29T15:11:48;16.60;92.00
6333;DHT22;3199;49.102;8.856;2022-09-29T15:14:26;16.60;92.00
6333;DHT22;3199;49.102;8.856;2022-09-29T15:27:49;16.30;91.50
6333;DHT22;3199;49.102;8.856;2022-09-29T15:30:17;16.30;91.80
6333;DHT22;3199;49.102;8.856;2022-09-29T15:32:45;16.20;91.60
6333;DHT22;3199;49.102;8.856;2022-09-29T15:35:21;16.20;91.40
6333;DHT22;3199;49.102;8.856;2022-09-29T15:37:54;16.20;91.80
6333;DHT22;3199;49.102;8.856;2022-09-29T15:40:22;16.10;92.10
6333;DHT22;3199;49.102;8.856;2022-09-29T15:42:49;15.90;92.10
6333;DHT22;3199;49.102;8.856;2022-09-29T15:45:22;15.70;92.30
6333;DHT22;3199;49.102;8.856;2022-09-29T15:47:48;15.70;92.80
6333;DHT22;3199;49.102;8.856;2022-09-29T15:50:25;15.60;93.10
6333;DHT22;3199;49.102;8.856;2022-09-29T15:52:51;15.60;93.10
6333;DHT22;3199;49.102;8.856;2022-09-29T15:55:20;15.60;93.50
6333;DHT22;3199;49.102;8.856;2022-09-29T15:57:47;15.60;93.40
6333;DHT22;3199;49.102;8.856;2022-09-29T16:03:10;15.50;93.50
6333;DHT22;3199;49.102;8.856;2022-09-29T16:05:39;15.50;93.40
6333;DHT22;3199;49.102;8.856;2022-09-29T16:08:21;15.50;93.20
6333;DHT22;3199;49.102;8.856;2022-09-29T16:10:56;15.40;93.30
6333;DHT22;3199;49.102;8.856;2022-09-29T16:13:27;15.40;93.30
6333;DHT22;3199;49.102;8.856;2022-09-29T16:16:02;15.30;93.20
6333;DHT22;3199;49.102;8.856;2022-09-29T16:18:43;15.30;93.40
6333;DHT22;3199;49.102;8.856;2022-09-29T16:21:16;15.20;93.60
6333;DHT22;3199;49.102;8.856;2022-09-29T16:24:09;15.10;94.00
6333;DHT22;3199;49.102;8.856;2022-09-29T16:26:42;15.00;95.10
6333;DHT22;3199;49.102;8.856;2022-09-29T16:31:35;14.80;96.70
6333;DHT22;3199;49.102;8.856;2022-09-29T16:34:07;14.80;97.80
6333;DHT22;3199;49.102;8.856;2022-09-29T16:37:02;14.70;98.80
6333;DHT22;3199;49.102;8.856;2022-09-29T16:39:45;14.60;99.80
6333;DHT22;3199;49.102;8.856;2022-09-29T16:42:21;14.50;99.90
6333;DHT22;3199;49.102;8.856;2022-09-29T16:44:50;14.40;99.90
6333;DHT22;3199;49.102;8.856;2022-09-29T16:49:50;14.20;99.90
6333;DHT22;3199;49.102;8.856;2022-09-29T16:52:26;14.10;99.90
6333;DHT22;3199;49.102;8.856;2022-09-29T16:57:55;13.80;99.90
6333;DHT22;3199;49.102;8.856;2022-09-29T17:00:21;13.80;99.90
6333;DHT22;3199;49.102;8.856;2022-09-29T17:02:54;13.70;99.90
6333;DHT22;3199;49.102;8.856;2022-09-29T17:05:23;13.60;99.90
6333;DHT22;3199;49.102;8.856;2022-09-29T17:07:50;13.60;99.90
6333;DHT22;3199;49.102;8.856;2022-09-29T17:10:24;13.50;99.90
6333;DHT22;3199;49.102;8.856;2022-09-29T17:12:50;13.40;99.90
6333;DHT22;3199;49.102;8.856;2022-09-29T17:15:17;13.30;99.90
6333;DHT22;3199;49.102;8.856;2022-09-29T17:17:47;13.20;99.90
6333;DHT22;3199;49.102;8.856;2022-09-29T17:20:16;13.10;99.90
6333;DHT22;3199;49.102;8.856;2022-09-29T17:22:43;13.00;99.90
6333;DHT22;3199;49.102;8.856;2022-09-29T17:25:10;13.00;99.90
6333;DHT22;3199;49.102;8.856;2022-09-29T17:27:36;12.90;99.90
6333;DHT22;3199;49.102;8.856;2022-09-29T17:30:22;12.90;99.90
6333;DHT22;3199;49.102;8.856;2022-09-29T17:32:50;12.80;99.90
6333;DHT22;3199;49.102;8.856;2022-09-29T17:35:18;12.80;99.90
6333;DHT22;3199;49.102;8.856;2022-09-29T17:37:45;12.70;99.90
6333;DHT22;3199;49.102;8.856;2022-09-29T17:40:29;12.60;99.90
6333;DHT22;3199;49.102;8.856;2022-09-29T17:42:57;12.50;99.90
6333;DHT22;3199;49.102;8.856;2022-09-29T17:45:26;12.40;99.90
6333;DHT22;3199;49.102;8.856;2022-09-29T17:47:52;12.30;99.90
6333;DHT22;3199;49.102;8.856;2022-09-29T17:50:23;12.20;99.90
6333;DHT22;3199;49.102;8.856;2022-09-29T17:52:49;12.10;99.90
6333;DHT22;3199;49.102;8.856;2022-09-29T17:55:15;12.10;99.90
6333;DHT22;3199;49.102;8.856;2022-09-29T17:57:41;12.00;99.90
6333;DHT22;3199;49.102;8.856;2022-09-29T18:00:19;11.90;99.90
6333;DHT22;3199;49.102;8.856;2022-09-29T18:02:47;11.80;99.90
6333;DHT22;3199;49.102;8.856;2022-09-29T18:05:13;11.70;99.90
6333;DHT22;3199;49.102;8.856;2022-09-29T18:07:38;11.70;99.90
6333;DHT22;3199;49.102;8.856;2022-09-29T18:10:18;11.60;99.90
6333;DHT22;3199;49.102;8.856;2022-09-29T18:12:44;11.60;99.90
6333;DHT22;3199;49.102;8.856;2022-09-29T18:15:09;11.60;99.90
6333;DHT22;3199;49.102;8.856;2022-09-29T18:17:35;11.60;99.90
6333;DHT22;3199;49.102;8.856;2022-09-29T18:20:15;11.60;99.90
6333;DHT22;3199;49.102;8.856;2022-09-29T18:22:41;11.60;99.90
6333;DHT22;3199;49.102;8.856;2022-09-29T18:25:09;11.60;99.90
6333;DHT22;3199;49.102;8.856;2022-09-29T18:27:34;11.60;99.90
6333;DHT22;3199;49.102;8.856;2022-09-29T18:30:23;11.60;99.90
6333;DHT22;3199;49.102;8.856;2022-09-29T18:32:49;11.60;99.90
6333;DHT22;3199;49.102;8.856;2022-09-29T18:35:18;11.50;99.90
6333;DHT22;3199;49.102;8.856;2022-09-29T18:37:44;11.50;99.90
6333;DHT22;3199;49.102;8.856;2022-09-29T18:40:10;11.50;99.90
6333;DHT22;3199;49.102;8.856;2022-09-29T18:42:44;11.40;99.90
6333;DHT22;3199;49.102;8.856;2022-09-29T18:45:12;11.40;99.90
6333;DHT22;3199;49.102;8.856;2022-09-29T18:47:40;11.30;99.90
6333;DHT22;3199;49.102;8.856;2022-09-29T18:50:12;11.30;99.90
6333;DHT22;3199;49.102;8.856;2022-09-29T18:52:38;11.30;99.90
6333;DHT22;3199;49.102;8.856;2022-09-29T18:55:05;11.30;99.90
6333;DHT22;3199;49.102;8.856;2022-09-29T18:57:30;11.30;99.90
6333;DHT22;3199;49.102;8.856;2022-09-29T18:59:56;11.30;99.90
6333;DHT22;3199;49.102;8.856;2022-09-29T19:02:22;11.40;99.90
6333;DHT22;3199;49.102;8.856;2022-09-29T19:04:50;11.40;99.90
6333;DHT22;3199;49.102;8.856;2022-09-29T19:07:17;11.40;99.90
6333;DHT22;3199;49.102;8.856;2022-09-29T19:09:44;11.40;99.90
6333;DHT22;3199;49.102;8.856;2022-09-29T19:12:09;11.40;99.90
6333;DHT22;3199;49.102;8.856;2022-09-29T19:14:36;11.40;99.90
6333;DHT22;3199;49.102;8.856;2022-09-29T19:17:02;11.40;99.90
6333;DHT22;3199;49.102;8.856;2022-09-29T19:19:27;11.40;99.90
6333;DHT22;3199;49.102;8.856;2022-09-29T19:21:53;11.40;99.90
6333;DHT22;3199;49.102;8.856;2022-09-29T19:24:19;11.40;99.90
6333;DHT22;3199;49.102;8.856;2022-09-29T19:26:46;11.40;99.90
6333;DHT22;3199;49.102;8.856;2022-09-29T19:29:12;11.30;99.90
6333;DHT22;3199;49.102;8.856;2022-09-29T19:31:37;11.30;99.90
6333;DHT22;3199;49.102;8.856;2022-09-29T19:34:03;11.30;99.90
6333;DHT22;3199;49.102;8.856;2022-09-29T19:36:28;11.30;99.90
6333;DHT22;3199;49.102;8.856;2022-09-29T19:38:55;11.20;99.90